Time;durP1;ratioP1;P1;durP2;ratioP2;P2;SDS_P1;SDS_P2;PMS_P1;PMS_P2;Temp;Humidity;BMP_temperature;BMP_pressure;BME280_temperature;BME280_humidity;BME280_pressure;Samples;Min_cycle;Max_cycle;Signal;HPM_P1;HPM_P2
2023/04/13 00:01:10;;;;;;;6.77;3.93;;;;;;;8.68;100.00;99227.81;5035346;28;20114;-81
2023/04/13 00:03:37;;;;;;;5.33;4.27;;;;;;;8.68;100.00;99219.91;5052787;28;20040;-82
2023/04/13 00:06:09;;;;;;;6.10;4.00;;;;;;;8.71;100.00;99224.22;5043835;28;20060;-82
2023/04/13 00:08:36;;;;;;;6.77;4.57;;;;;;;8.68;100.00;99229.59;5058864;28;20036;-81
2023/04/13 00:11:04;;;;;;;8.00;4.33;;;;;;;8.67;100.00;99238.41;5043886;28;20044;-81
2023/04/13 00:13:36;;;;;;;7.13;4.57;;;;;;;8.67;100.00;99241.91;5033004;28;20047;-81
2023/04/13 00:16:04;;;;;;;7.47;4.57;;;;;;;8.72;100.00;99231.19;5043939;28;20128;-83
2023/04/13 00:18:31;;;;;;;6.33;4.00;;;;;;;8.65;100.00;99225.28;5048879;28;20036;-82
2023/04/13 00:20:58;;;;;;;7.20;3.90;;;;;;;8.76;100.00;99229.31;5061759;28;20487;-81
2023/04/13 00:23:25;;;;;;;5.37;3.87;;;;;;;8.74;100.00;99232.00;5032617;28;20051;-81
2023/04/13 00:25:52;;;;;;;6.67;4.03;;;;;;;8.73;100.00;99217.97;5057916;28;20033;-81
2023/04/13 00:28:19;;;;;;;6.03;4.80;;;;;;;8.91;100.00;99216.47;5048407;28;20051;-82
2023/04/13 00:30:46;;;;;;;10.00;5.57;;;;;;;8.72;100.00;99210.97;5065051;28;20055;-81
2023/04/13 00:33:12;;;;;;;5.80;4.73;;;;;;;8.62;100.00;99206.97;5066965;28;20033;-82
2023/04/13 00:35:40;;;;;;;5.27;4.77;;;;;;;8.50;100.00;99204.78;5041187;28;20037;-82
2023/04/13 00:38:07;;;;;;;6.97;4.80;;;;;;;8.41;100.00;99200.72;5065814;28;20028;-80
2023/04/13 00:40:36;;;;;;;6.23;4.70;;;;;;;8.36;100.00;99202.63;5035119;28;20041;-81
2023/04/13 00:43:04;;;;;;;7.97;5.40;;;;;;;8.32;100.00;99189.59;5045527;28;20051;-81
2023/04/13 00:45:36;;;;;;;6.03;4.43;;;;;;;8.20;100.00;99190.88;5052629;28;20045;-81
2023/04/13 00:48:04;;;;;;;5.70;4.57;;;;;;;8.09;100.00;99201.78;5045886;28;20413;-83
2023/04/13 00:50:32;;;;;;;6.00;4.23;;;;;;;8.00;100.00;99211.75;5066355;28;20509;-81
2023/04/13 00:53:00;;;;;;;6.40;4.50;;;;;;;7.90;100.00;99217.31;5037989;28;20052;-82
2023/04/13 00:55:29;;;;;;;6.47;5.33;;;;;;;7.81;100.00;99214.94;5054588;28;20451;-82
2023/04/13 00:57:57;;;;;;;5.60;4.40;;;;;;;7.73;100.00;99237.13;5060097;28;20040;-81
2023/04/13 01:00:25;;;;;;;5.90;4.27;;;;;;;7.67;100.00;99232.09;5035432;28;20071;-81
2023/04/13 01:02:52;;;;;;;6.83;4.50;;;;;;;7.61;100.00;99230.50;5067873;28;20054;-81
2023/04/13 01:05:20;;;;;;;5.77;4.70;;;;;;;7.56;100.00;99245.53;5069436;28;20039;-80
2023/04/13 01:07:49;;;;;;;6.03;5.10;;;;;;;7.51;100.00;99242.22;5066124;28;20031;-81
2023/04/13 01:10:41;;;;;;;6.33;4.77;;;;;;;7.47;100.00;99261.59;5077048;28;20412;-81
2023/04/13 01:13:16;;;;;;;6.60;5.27;;;;;;;7.45;100.00;99266.03;5052019;28;20041;-81
2023/04/13 01:15:51;;;;;;;7.80;4.93;;;;;;;7.39;100.00;99263.59;5082954;28;20040;-80
2023/04/13 01:18:19;;;;;;;5.50;4.70;;;;;;;7.38;100.00;99277.63;5032257;28;20037;-79
2023/04/13 01:20:46;;;;;;;6.30;5.70;;;;;;;7.34;100.00;99280.38;5065487;28;20033;-81
2023/04/13 01:23:51;;;;;;;8.80;5.90;;;;;;;7.38;100.00;99289.00;5049974;28;20040;-82
2023/04/13 01:26:21;;;;;;;7.03;5.45;;;;;;;7.39;100.00;99289.88;5062267;28;20044;-82
2023/04/13 01:28:50;;;;;;;7.97;5.47;;;;;;;7.43;100.00;99294.13;5069480;28;20085;-80
2023/04/13 01:31:16;;;;;;;7.77;5.97;;;;;;;7.54;100.00;99311.31;5035495;28;20037;-83
2023/04/13 01:33:45;;;;;;;10.37;6.37;;;;;;;7.60;100.00;99312.91;5053248;28;20045;-82
2023/04/13 01:36:13;;;;;;;9.40;7.23;;;;;;;7.71;100.00;99313.44;5050788;28;20037;-81
2023/04/13 01:38:40;;;;;;;9.83;7.37;;;;;;;7.73;100.00;99314.22;5066209;28;20883;-83
2023/04/13 01:41:07;;;;;;;7.83;6.07;;;;;;;7.74;100.00;99305.47;5069768;28;20395;-83
2023/04/13 01:43:34;;;;;;;10.70;6.50;;;;;;;7.74;100.00;99292.31;5052697;28;20134;-79
2023/04/13 01:46:14;;;;;;;8.97;6.60;;;;;;;7.83;100.00;99299.91;5068558;28;20040;-81
2023/04/13 01:48:44;;;;;;;13.00;7.57;;;;;;;7.89;100.00;99307.59;5049850;28;20045;-81
2023/04/13 01:51:33;;;;;;;12.63;8.13;;;;;;;7.96;100.00;99300.38;5044272;28;20056;-82
2023/04/13 01:54:11;;;;;;;9.53;6.90;;;;;;;7.95;100.00;99306.56;5031810;28;20041;-80
2023/04/13 01:56:39;;;;;;;10.50;7.40;;;;;;;8.07;100.00;99318.44;5075514;28;20041;-81
2023/04/13 01:59:06;;;;;;;11.57;7.43;;;;;;;8.07;100.00;99318.44;5051786;28;20068;-83
2023/04/13 02:01:36;;;;;;;11.50;8.30;;;;;;;8.20;100.00;99325.03;5066980;28;20033;-82
2023/04/13 02:04:04;;;;;;;13.40;8.63;;;;;;;8.24;100.00;99333.69;5046290;28;20122;-82
2023/04/13 02:06:30;;;;;;;14.20;9.53;;;;;;;8.25;100.00;99341.56;5060466;28;20040;-81
2023/04/13 02:08:58;;;;;;;17.17;9.43;;;;;;;8.30;100.00;99341.41;5050484;28;20044;-82
2023/04/13 02:11:26;;;;;;;13.40;8.70;;;;;;;8.24;100.00;99344.22;5051704;28;20072;-82
2023/04/13 02:13:56;;;;;;;14.13;10.00;;;;;;;8.29;100.00;99347.56;5047320;28;20052;-84
2023/04/13 02:16:24;;;;;;;15.80;10.37;;;;;;;8.45;100.00;99357.59;5048412;28;20064;-82
2023/04/13 02:18:50;;;;;;;19.17;11.50;;;;;;;8.42;100.00;99360.31;5060647;28;20063;-82
2023/04/13 02:21:17;;;;;;;17.80;11.57;;;;;;;8.46;100.00;99366.34;5051892;28;20500;-81
2023/04/13 02:23:44;;;;;;;16.27;11.40;;;;;;;8.52;100.00;99363.50;5046002;28;20044;-82
2023/04/13 02:26:12;;;;;;;15.40;10.53;;;;;;;8.48;100.00;99364.50;5049507;28;20044;-83
2023/04/13 02:28:39;;;;;;;15.97;10.77;;;;;;;8.48;100.00;99374.19;5048556;28;20048;-80
2023/04/13 02:31:06;;;;;;;16.53;11.53;;;;;;;8.41;100.00;99374.41;5066169;28;20098;-83
2023/04/13 02:33:34;;;;;;;20.40;11.70;;;;;;;8.32;100.00;99379.03;5045964;28;20040;-81
2023/04/13 02:36:02;;;;;;;16.50;11.23;;;;;;;8.34;100.00;99377.25;5029518;28;20102;-82
2023/04/13 02:38:30;;;;;;;15.87;11.13;;;;;;;8.31;100.00;99388.69;5041732;28;20654;-83
2023/04/13 02:40:58;;;;;;;14.73;10.50;;;;;;;8.30;100.00;99383.50;5047535;28;20079;-84
2023/04/13 02:43:27;;;;;;;15.70;10.13;;;;;;;8.25;100.00;99390.69;5051462;28;20127;-82
2023/04/13 02:45:55;;;;;;;16.10;10.40;;;;;;;8.22;100.00;99394.25;5042432;28;20044;-82
2023/04/13 02:48:22;;;;;;;14.63;9.97;;;;;;;8.17;100.00;99396.19;5062650;28;20040;-81
2023/04/13 02:50:49;;;;;;;16.50;10.40;;;;;;;8.10;100.00;99390.25;5049543;28;20045;-82
2023/04/13 02:53:16;;;;;;;14.67;9.60;;;;;;;8.07;100.00;99387.72;5062208;28;20036;-82
2023/04/13 02:55:43;;;;;;;15.60;10.07;;;;;;;8.11;100.00;99377.94;5047146;28;20531;-83
2023/04/13 02:58:10;;;;;;;14.67;9.97;;;;;;;8.04;100.00;99377.28;5050648;28;20524;-82
2023/04/13 03:00:38;;;;;;;14.57;9.70;;;;;;;8.02;100.00;99376.47;5064764;28;20037;-81
2023/04/13 03:03:05;;;;;;;13.80;9.10;;;;;;;8.04;100.00;99373.78;5031930;28;20068;-82
2023/04/13 03:05:32;;;;;;;13.63;8.97;;;;;;;8.04;100.00;99373.78;5057905;28;20128;-82
2023/04/13 03:07:59;;;;;;;12.47;8.53;;;;;;;8.00;100.00;99366.91;5075474;28;20064;-82
2023/04/13 03:10:26;;;;;;;12.53;8.47;;;;;;;7.93;100.00;99375.88;5038064;28;20140;-83
2023/04/13 03:12:53;;;;;;;10.27;8.17;;;;;;;7.87;100.00;99374.28;5030820;28;20052;-82
2023/04/13 03:15:20;;;;;;;12.73;8.40;;;;;;;7.92;100.00;99375.03;5048260;28;20085;-83
2023/04/13 03:17:47;;;;;;;10.73;7.77;;;;;;;7.76;100.00;99379.03;5048053;28;20498;-81
2023/04/13 03:20:15;;;;;;;11.23;7.53;;;;;;;7.77;100.00;99376.34;5036540;28;20039;-81
2023/04/13 03:22:43;;;;;;;11.90;8.83;;;;;;;7.85;100.00;99379.59;5059860;28;20068;-83
2023/04/13 03:25:11;;;;;;;10.83;8.20;;;;;;;7.83;100.00;99394.56;5064381;28;20046;-83
2023/04/13 03:27:38;;;;;;;12.23;7.63;;;;;;;7.77;100.00;99397.38;5046272;28;20076;-82
2023/04/13 03:30:06;;;;;;;12.40;7.43;;;;;;;7.63;100.00;99394.28;5061139;28;20071;-82
2023/04/13 03:32:33;;;;;;;11.43;7.33;;;;;;;7.76;100.00;99400.06;5055351;28;20036;-84
2023/04/13 03:35:00;;;;;;;11.50;7.60;;;;;;;7.76;100.00;99385.13;5045952;28;20076;-81
2023/04/13 03:37:28;;;;;;;12.53;8.30;;;;;;;7.61;100.00;99399.59;5044965;28;20043;-84
2023/04/13 03:39:57;;;;;;;12.10;6.87;;;;;;;7.60;100.00;99404.88;5046185;28;20136;-83
2023/04/13 03:42:23;;;;;;;11.23;7.13;;;;;;;7.52;100.00;99414.75;5043477;28;20051;-80
2023/04/13 03:44:50;;;;;;;14.83;7.70;;;;;;;7.48;100.00;99421.88;5034732;28;20118;-83
2023/04/13 03:47:17;;;;;;;13.20;8.70;;;;;;;7.42;100.00;99436.94;5034206;28;20079;-83
2023/04/13 03:49:43;;;;;;;12.60;7.80;;;;;;;7.31;100.00;99435.47;5063834;28;20051;-83
2023/04/13 03:52:10;;;;;;;13.23;7.97;;;;;;;7.38;100.00;99449.28;5033087;28;20048;-82
2023/04/13 03:54:38;;;;;;;13.17;7.00;;;;;;;7.39;100.00;99447.50;5044575;28;20160;-83
2023/04/13 03:57:06;;;;;;;13.03;8.00;;;;;;;7.33;100.00;99441.53;5066516;28;20036;-80
2023/04/13 03:59:32;;;;;;;10.83;7.13;;;;;;;7.23;100.00;99439.16;5030283;28;20040;-82
2023/04/13 04:02:01;;;;;;;10.90;6.90;;;;;;;7.11;100.00;99443.00;5045729;28;20114;-83
2023/04/13 04:04:28;;;;;;;11.07;7.10;;;;;;;7.06;100.00;99444.88;5049728;28;20060;-81
2023/04/13 04:06:56;;;;;;;11.23;6.90;;;;;;;7.06;100.00;99452.75;5045458;28;20040;-82
2023/04/13 04:09:24;;;;;;;13.20;7.03;;;;;;;7.08;100.00;99460.59;5052275;28;20040;-83
2023/04/13 04:11:51;;;;;;;10.03;6.43;;;;;;;7.05;100.00;99458.91;5052873;28;20047;-82
2023/04/13 04:14:19;;;;;;;9.60;5.90;;;;;;;7.03;100.00;99463.34;5047805;28;20068;-82
2023/04/13 04:16:49;;;;;;;10.47;6.80;;;;;;;6.95;100.00;99457.41;5056607;28;20037;-84
2023/04/13 04:19:16;;;;;;;10.63;6.57;;;;;;;6.90;100.00;99464.56;5051549;28;20041;-82
2023/04/13 04:21:45;;;;;;;10.83;6.03;;;;;;;6.83;100.00;99468.22;5069654;28;20273;-83
2023/04/13 04:24:22;;;;;;;7.43;4.93;;;;;;;6.72;100.00;99468.47;5035785;28;20055;-82
2023/04/13 04:26:49;;;;;;;9.40;6.13;;;;;;;6.74;100.00;99470.19;5047542;28;20049;-81
2023/04/13 04:29:16;;;;;;;10.17;6.50;;;;;;;6.70;100.00;99473.75;5052695;28;20134;-82
2023/04/13 04:31:43;;;;;;;9.00;6.53;;;;;;;6.61;100.00;99467.88;5051885;28;20056;-80
2023/04/13 04:34:10;;;;;;;13.20;5.80;;;;;;;6.62;100.00;99470.44;5067823;28;20060;-80
2023/04/13 04:36:40;;;;;;;9.27;6.10;;;;;;;6.59;100.00;99478.41;5054777;28;20037;-81
2023/04/13 04:39:08;;;;;;;13.50;6.77;;;;;;;6.56;100.00;99481.13;5039465;28;20033;-80
2023/04/13 04:41:36;;;;;;;10.33;6.27;;;;;;;6.51;100.00;99479.47;5040066;28;20631;-80
2023/04/13 04:44:07;;;;;;;11.43;6.00;;;;;;;6.52;100.00;99491.69;5078011;28;20039;-81
2023/04/13 04:46:37;;;;;;;9.97;6.23;;;;;;;6.40;100.00;99490.22;5070953;28;20040;-80
2023/04/13 04:49:04;;;;;;;9.23;6.20;;;;;;;6.39;100.00;99498.97;5075712;28;20078;-80
2023/04/13 04:51:30;;;;;;;12.03;7.03;;;;;;;6.46;100.00;99500.56;5045518;28;20048;-80
2023/04/13 04:54:00;;;;;;;11.50;7.20;;;;;;;6.45;100.00;99501.47;5071732;28;20059;-80
2023/04/13 04:56:27;;;;;;;9.77;6.40;;;;;;;6.43;100.00;99516.38;5059531;28;20044;-80
2023/04/13 04:58:54;;;;;;;10.47;6.40;;;;;;;6.43;100.00;99505.88;5059870;28;20513;-80
2023/04/13 05:01:25;;;;;;;11.10;7.20;;;;;;;6.43;100.00;99505.88;5077975;28;20040;-80
2023/04/13 05:03:52;;;;;;;9.77;5.67;;;;;;;6.41;100.00;99510.31;5051889;28;20048;-80
2023/04/13 05:06:19;;;;;;;11.20;6.40;;;;;;;6.41;100.00;99512.94;5069924;28;20130;-80
2023/04/13 05:08:45;;;;;;;13.33;6.97;;;;;;;6.44;100.00;99511.09;5074469;28;20044;-80
2023/04/13 05:11:12;;;;;;;13.50;7.17;;;;;;;6.47;100.00;99497.94;5069049;28;20072;-79
2023/04/13 05:13:39;;;;;;;14.37;7.03;;;;;;;6.53;100.00;99498.66;5074809;28;20055;-82
2023/04/13 05:16:06;;;;;;;9.37;5.77;;;;;;;6.48;100.00;99506.66;5041553;28;20057;-80
2023/04/13 05:18:42;;;;;;;10.83;6.50;;;;;;;6.47;100.00;99511.03;5081068;28;20032;-81
2023/04/13 05:21:09;;;;;;;10.30;6.10;;;;;;;6.46;100.00;99501.41;5059259;28;20051;-81
2023/04/13 05:23:36;;;;;;;10.97;6.87;;;;;;;6.47;100.00;99503.19;5039139;28;20776;-79
2023/04/13 05:26:02;;;;;;;12.20;6.83;;;;;;;6.45;100.00;99506.72;5049398;28;20399;-81
2023/04/13 05:28:29;;;;;;;12.57;6.23;;;;;;;6.47;100.00;99513.66;5063621;28;20033;-82
2023/04/13 05:31:03;;;;;;;9.40;5.80;;;;;;;6.47;100.00;99518.03;5055871;28;20489;-83
2023/04/13 05:33:30;;;;;;;10.75;6.60;;;;;;;6.47;100.00;99521.53;5049744;28;20613;-83
2023/04/13 05:35:57;;;;;;;10.87;6.00;;;;;;;6.46;100.00;99519.78;5037275;28;20067;-82
2023/04/13 05:38:23;;;;;;;10.93;6.87;;;;;;;6.52;100.00;99524.03;5054505;28;20036;-82
2023/04/13 05:40:51;;;;;;;12.37;7.30;;;;;;;6.59;100.00;99530.88;5063974;28;20050;-84
2023/04/13 05:43:18;;;;;;;11.50;6.67;;;;;;;6.58;100.00;99518.66;5049250;28;20494;-82
2023/04/13 05:45:47;;;;;;;10.80;6.43;;;;;;;6.64;100.00;99522.88;5035245;28;20140;-80
2023/04/13 05:48:14;;;;;;;11.97;6.37;;;;;;;6.69;100.00;99528.91;5071269;28;20033;-81
2023/04/13 05:50:42;;;;;;;13.47;7.80;;;;;;;6.82;100.00;99530.38;5045449;28;20040;-80
2023/04/13 05:53:09;;;;;;;12.03;6.77;;;;;;;6.91;100.00;99539.78;5059655;28;20044;-83
2023/04/13 05:55:36;;;;;;;12.77;7.20;;;;;;;6.97;100.00;99543.13;5029919;28;20044;-82
2023/04/13 05:58:02;;;;;;;12.93;8.00;;;;;;;7.04;100.00;99547.31;5064280;28;20032;-83
2023/04/13 06:00:29;;;;;;;10.00;5.87;;;;;;;7.16;100.00;99556.69;5072386;28;20281;-81
2023/04/13 06:02:58;;;;;;;14.23;8.27;;;;;;;7.24;100.00;99561.75;5050253;28;20127;-81
2023/04/13 06:05:25;;;;;;;13.77;7.43;;;;;;;7.25;100.00;99552.97;5049401;28;20068;-82
2023/04/13 06:07:52;;;;;;;14.63;8.60;;;;;;;7.40;100.00;99554.34;5044080;28;20051;-81
2023/04/13 06:10:19;;;;;;;12.77;8.60;;;;;;;7.36;100.00;99560.59;5065406;28;20044;-81
2023/04/13 06:12:47;;;;;;;13.17;8.00;;;;;;;7.38;100.00;99575.41;5031730;28;20064;-80
2023/04/13 06:15:14;;;;;;;11.33;6.83;;;;;;;7.42;100.00;99568.31;5060519;28;20033;-81
2023/04/13 06:17:41;;;;;;;12.33;7.40;;;;;;;7.37;100.00;99580.69;5045071;28;20036;-81
2023/04/13 06:20:09;;;;;;;12.80;6.93;;;;;;;7.38;100.00;99588.53;5036958;28;20438;-80
2023/04/13 06:22:39;;;;;;;13.03;7.37;;;;;;;7.37;100.00;99589.44;5061267;28;20037;-79
2023/04/13 06:25:07;;;;;;;10.87;6.63;;;;;;;7.38;100.00;99596.41;5066260;28;20036;-81
2023/04/13 06:27:34;;;;;;;10.73;6.27;;;;;;;7.45;100.00;99602.41;5035087;28;20040;-80
2023/04/13 06:30:01;;;;;;;9.13;5.83;;;;;;;7.46;100.00;99602.34;5046547;28;20040;-80
2023/04/13 06:32:28;;;;;;;11.07;6.33;;;;;;;7.58;100.00;99594.19;5035207;28;20040;-81
2023/04/13 06:34:55;;;;;;;12.30;6.50;;;;;;;7.58;100.00;99595.94;5063126;28;20036;-81
2023/04/13 06:37:22;;;;;;;8.47;5.60;;;;;;;7.62;100.00;99597.59;5063601;28;20405;-82
2023/04/13 06:39:49;;;;;;;10.80;5.40;;;;;;;7.68;100.00;99601.84;5046355;28;20139;-81
2023/04/13 06:42:17;;;;;;;11.10;5.53;;;;;;;7.72;100.00;99603.47;5067279;28;20048;-82
2023/04/13 06:44:44;;;;;;;10.07;6.03;;;;;;;7.74;100.00;99613.06;5041170;28;20044;-81
2023/04/13 06:47:11;;;;;;;8.87;5.10;;;;;;;7.77;100.00;99612.09;5032699;28;20559;-80
2023/04/13 06:49:37;;;;;;;10.70;5.70;;;;;;;7.78;100.00;99613.81;5050651;28;20044;-81
2023/04/13 06:52:05;;;;;;;9.93;5.23;;;;;;;7.82;100.00;99616.34;5064210;28;20115;-80
2023/04/13 06:54:32;;;;;;;10.00;5.80;;;;;;;7.89;100.00;99615.25;5052796;28;20040;-80
2023/04/13 06:57:00;;;;;;;9.20;5.47;;;;;;;7.98;100.00;99611.53;5063593;28;20066;-81
2023/04/13 06:59:27;;;;;;;12.90;5.00;;;;;;;8.00;100.00;99627.28;5034885;28;20033;-82
2023/04/13 07:01:54;;;;;;;8.63;5.67;;;;;;;8.05;100.00;99623.63;5031566;28;20079;-83
2023/04/13 07:04:22;;;;;;;11.97;5.67;;;;;;;8.10;100.00;99624.38;5033176;28;20067;-83
2023/04/13 07:06:52;;;;;;;7.90;4.63;;;;;;;8.18;100.00;99624.16;5035148;28;20741;-81
2023/04/13 07:09:19;;;;;;;9.40;4.60;;;;;;;8.25;100.00;99624.88;5051176;28;20029;-82
2023/04/13 07:11:46;;;;;;;7.93;4.83;;;;;;;8.31;100.00;99625.53;5062462;28;20038;-83
2023/04/13 07:14:12;;;;;;;8.63;4.83;;;;;;;8.44;100.00;99636.63;5051415;28;20043;-83
2023/04/13 07:16:39;;;;;;;8.87;5.93;;;;;;;8.33;100.00;99634.28;5033572;28;20131;-83
2023/04/13 07:19:06;;;;;;;7.70;4.27;;;;;;;8.40;100.00;99643.72;5031784;28;20494;-83
2023/04/13 07:21:34;;;;;;;8.93;4.50;;;;;;;8.45;100.00;99647.09;5065856;28;20037;-82
2023/04/13 07:24:00;;;;;;;8.63;3.97;;;;;;;8.53;100.00;99651.31;5051618;28;20044;-82
2023/04/13 07:26:27;;;;;;;8.60;4.43;;;;;;;8.64;100.00;99647.44;5048612;28;20082;-81
2023/04/13 07:28:54;;;;;;;7.30;4.50;;;;;;;8.67;100.00;99651.78;5053042;28;20043;-80
2023/04/13 07:31:21;;;;;;;9.27;3.97;;;;;;;8.70;100.00;99657.81;5030245;28;20082;-83
2023/04/13 07:33:48;;;;;;;9.77;4.33;;;;;;;8.79;100.00;99654.03;5048307;28;20040;-81
2023/04/13 07:36:15;;;;;;;5.43;4.07;;;;;;;8.90;100.00;99653.72;5033386;28;20219;-82
2023/04/13 07:38:41;;;;;;;7.57;4.20;;;;;;;8.88;100.00;99653.78;5041447;28;20041;-80
2023/04/13 07:41:08;;;;;;;7.17;4.27;;;;;;;8.84;100.00;99654.78;5047702;28;20064;-82
2023/04/13 07:43:36;;;;;;;6.20;4.30;;;;;;;8.87;100.00;99653.81;5048666;28;20039;-81
2023/04/13 07:46:10;;;;;;;8.47;4.70;;;;;;;8.81;100.00;99654.00;5051298;28;20036;-80
2023/04/13 07:48:37;;;;;;;7.83;4.17;;;;;;;8.86;100.00;99652.97;5048909;28;20040;-81
2023/04/13 07:51:04;;;;;;;8.47;4.70;;;;;;;8.92;100.00;99654.56;5047245;28;20049;-82
2023/04/13 07:53:31;;;;;;;7.38;3.88;;;;;;;8.99;100.00;99666.63;5037760;28;20464;-82
2023/04/13 07:55:57;;;;;;;9.07;5.00;;;;;;;9.02;100.00;99679.72;5052277;28;20044;-80
2023/04/13 07:58:24;;;;;;;7.97;4.30;;;;;;;8.99;100.00;99677.16;5046062;28;20029;-80
2023/04/13 08:00:51;;;;;;;7.35;4.07;;;;;;;8.94;100.00;99674.66;5063326;28;20063;-80
2023/04/13 08:03:17;;;;;;;8.90;4.63;;;;;;;9.01;100.00;99680.63;5059849;28;20044;-80
2023/04/13 08:05:44;;;;;;;8.50;4.70;;;;;;;9.10;100.00;99685.63;5062814;28;20118;-81
2023/04/13 08:08:12;;;;;;;5.23;3.67;;;;;;;9.17;100.00;99688.94;5068573;28;20048;-81
2023/04/13 08:10:39;;;;;;;7.77;4.23;;;;;;;9.21;100.00;99693.19;5037079;28;20513;-80
2023/04/13 08:13:06;;;;;;;7.13;4.37;;;;;;;9.31;100.00;99692.84;5073011;28;20048;-81
2023/04/13 08:15:33;;;;;;;8.27;4.40;;;;;;;9.50;100.00;99680.00;5069020;28;20045;-81
2023/04/13 08:18:00;;;;;;;7.97;4.30;;;;;;;9.52;100.00;99678.16;5034309;28;20044;-82
2023/04/13 08:20:28;;;;;;;5.95;3.83;;;;;;;9.57;100.00;99676.22;5054088;28;20432;-82
2023/04/13 08:22:54;;;;;;;8.07;3.83;;;;;;;9.57;100.00;99670.09;5051198;28;20036;-82
2023/04/13 08:25:21;;;;;;;6.75;3.50;;;;;;;9.64;100.00;99671.63;5033998;28;20044;-83
2023/04/13 08:27:48;;;;;;;5.38;3.33;;;;;;;9.73;100.00;99671.31;5065905;28;20051;-81
2023/04/13 08:30:15;;;;;;;6.95;3.88;;;;;;;9.83;100.00;99671.88;5037270;28;20079;-81
2023/04/13 08:32:41;;;;;;;6.47;3.53;;;;;;;9.88;100.00;99672.59;5036968;28;20505;-83
2023/04/13 08:35:09;;;;;;;9.07;3.22;;;;;;;9.73;100.00;99673.94;5051999;28;20040;-82
2023/04/13 08:37:37;;;;;;;4.63;3.10;;;;;;;9.91;100.00;99677.75;5034146;28;20046;-82
2023/04/13 08:40:06;;;;;;;3.97;2.85;;;;;;;10.10;100.00;99678.88;5067437;28;20029;-84
2023/04/13 08:42:33;;;;;;;6.13;3.15;;;;;;;10.28;100.00;99677.41;5051052;28;20041;-82
2023/04/13 08:45:02;;;;;;;5.35;2.97;;;;;;;10.33;100.00;99688.66;5048187;28;20052;-82
2023/04/13 08:47:29;;;;;;;5.15;3.00;;;;;;;10.43;100.00;99686.56;5063913;28;20122;-83
2023/04/13 08:49:58;;;;;;;5.05;2.60;;;;;;;10.63;100.00;99689.34;5046683;28;20314;-84
2023/04/13 08:52:26;;;;;;;4.38;2.72;;;;;;;10.74;100.00;99693.38;5055453;28;20474;-83
2023/04/13 08:54:55;;;;;;;4.05;2.70;;;;;;;10.94;100.00;99691.75;5064525;28;20045;-82
2023/04/13 08:57:22;;;;;;;2.92;2.22;;;;;;;11.07;100.00;99692.13;5032752;28;20194;-81
2023/04/13 08:59:51;;;;;;;5.95;2.45;;;;;;;11.30;97.41;99691.25;5044692;28;20152;-82
2023/04/13 09:02:27;;;;;;;5.95;2.75;;;;;;;11.29;94.34;99708.03;5035537;28;20052;-83
2023/04/13 09:04:58;;;;;;;4.60;2.63;;;;;;;11.26;89.54;99702.84;5036259;28;20037;-82
2023/04/13 09:07:31;;;;;;;3.42;1.98;;;;;;;11.10;85.56;99696.44;5034204;28;20045;-84
2023/04/13 09:09:59;;;;;;;2.67;1.88;;;;;;;11.11;93.70;99712.25;5070599;28;20076;-82
2023/04/13 09:12:27;;;;;;;3.15;1.90;;;;;;;11.24;93.76;99710.84;5032894;28;20087;-82
2023/04/13 09:14:54;;;;;;;2.75;1.90;;;;;;;11.28;89.14;99708.97;5043299;28;20052;-83
2023/04/13 09:17:28;;;;;;;3.40;2.08;;;;;;;11.26;89.61;99709.00;5056533;28;20036;-84
2023/04/13 09:19:56;;;;;;;2.28;1.70;;;;;;;11.40;88.88;99718.19;5061180;28;20039;-84
2023/04/13 09:22:24;;;;;;;3.42;1.92;;;;;;;11.42;88.08;99711.06;5042238;28;20041;-84
2023/04/13 09:24:51;;;;;;;3.40;1.75;;;;;;;11.51;88.81;99718.63;5053045;28;20056;-80
2023/04/13 09:27:22;;;;;;;4.20;1.60;;;;;;;11.43;86.99;99723.34;5050553;28;20057;-81
2023/04/13 09:29:50;;;;;;;4.20;1.60;;;;;;;11.38;88.51;99726.19;5038741;28;20044;-82
2023/04/13 09:32:24;;;;;;;2.35;1.48;;;;;;;11.40;84.02;99716.41;5052585;28;20043;-82
2023/04/13 09:35:06;;;;;;;3.83;1.60;;;;;;;11.20;80.45;99724.25;5035816;28;20179;-81
2023/04/13 09:37:35;;;;;;;2.38;1.50;;;;;;;11.12;84.15;99718.41;5064238;28;20048;-83
2023/04/13 09:40:13;;;;;;;3.33;1.60;;;;;;;11.20;86.51;99713.69;5035750;28;20067;-82
2023/04/13 09:42:41;;;;;;;2.92;1.63;;;;;;;11.35;85.13;99718.41;5058143;28;20044;-81
2023/04/13 09:45:08;;;;;;;3.45;1.90;;;;;;;11.49;83.26;99717.84;5032381;28;20044;-83
2023/04/13 09:47:37;;;;;;;2.63;1.38;;;;;;;11.63;79.07;99715.50;5044820;28;20048;-82
2023/04/13 09:50:04;;;;;;;2.35;1.48;;;;;;;11.64;76.13;99722.53;5048841;28;20043;-83
2023/04/13 09:52:31;;;;;;;3.97;1.30;;;;;;;11.82;78.10;99728.91;5033317;28;20045;-81
2023/04/13 09:54:58;;;;;;;2.28;1.20;;;;;;;11.96;76.49;99723.91;5052200;28;20052;-82
2023/04/13 09:57:29;;;;;;;1.98;1.30;;;;;;;11.94;77.05;99731.06;5049438;28;20035;-82
2023/04/13 09:59:59;;;;;;;2.05;1.23;;;;;;;11.93;74.73;99731.09;5051567;28;20055;-82
2023/04/13 10:02:27;;;;;;;2.00;1.38;;;;;;;11.90;75.80;99725.94;5053116;28;20048;-84
2023/04/13 10:04:54;;;;;;;3.45;1.60;;;;;;;11.92;75.07;99727.59;5034739;28;20056;-83
2023/04/13 10:07:25;;;;;;;4.00;1.33;;;;;;;11.97;75.91;99732.72;5055815;28;20036;-84
2023/04/13 10:09:52;;;;;;;2.33;1.40;;;;;;;12.08;75.09;99735.78;5049380;28;20091;-86
2023/04/13 10:12:19;;;;;;;3.78;1.65;;;;;;;12.12;76.55;99726.78;5033836;28;20037;-84
2023/04/13 10:14:47;;;;;;;1.40;1.10;;;;;;;12.11;77.23;99733.88;5038203;28;20067;-83
2023/04/13 10:17:30;;;;;;;3.35;1.40;;;;;;;12.33;76.91;99731.16;5037190;28;20050;-85
2023/04/13 10:20:00;;;;;;;2.97;1.30;;;;;;;12.65;75.46;99726.28;5052591;28;20039;-83
2023/04/13 10:22:28;;;;;;;3.42;1.58;;;;;;;13.17;79.29;99730.09;5040551;28;20044;-82
2023/04/13 10:24:55;;;;;;;2.35;1.30;;;;;;;13.65;70.48;99728.78;5036419;28;20054;-82
2023/04/13 10:27:22;;;;;;;2.13;1.05;;;;;;;14.00;64.90;99728.84;5049016;28;20052;-82
2023/04/13 10:29:49;;;;;;;1.63;1.10;;;;;;;14.24;62.10;99734.75;5032341;28;20480;-85
2023/04/13 10:32:26;;;;;;;2.80;1.10;;;;;;;14.23;63.09;99728.56;5047007;28;20113;-82
2023/04/13 10:34:53;;;;;;;2.88;1.52;;;;;;;13.98;60.57;99731.59;5039897;28;20129;-84
2023/04/13 10:37:22;;;;;;;1.67;1.20;;;;;;;13.79;62.37;99728.13;5052142;28;20049;-82
2023/04/13 10:40:05;;;;;;;1.45;0.98;;;;;;;13.37;61.38;99734.53;5045983;28;20407;-82
2023/04/13 10:42:43;;;;;;;3.13;1.10;;;;;;;13.55;63.00;99732.81;5032759;28;20242;-82
2023/04/13 10:45:20;;;;;;;2.58;1.10;;;;;;;13.66;64.05;99729.63;5059577;28;20041;-83
2023/04/13 10:47:47;;;;;;;1.25;1.00;;;;;;;13.66;63.60;99733.16;5080955;28;20140;-83
2023/04/13 10:50:22;;;;;;;2.75;1.17;;;;;;;13.72;59.96;99742.63;5023607;28;20051;-82
2023/04/13 10:52:59;;;;;;;2.83;1.13;;;;;;;13.61;62.62;99752.88;5042339;28;20080;-84
2023/04/13 10:55:26;;;;;;;1.25;0.93;;;;;;;13.45;61.50;99747.41;5074256;28;20107;-84
2023/04/13 10:57:55;;;;;;;2.92;0.90;;;;;;;13.53;64.36;99750.56;5050746;28;20053;-80
2023/04/13 11:00:24;;;;;;;1.52;1.10;;;;;;;13.61;62.13;99759.03;5034658;28;20044;-81
2023/04/13 11:03:05;;;;;;;1.20;0.90;;;;;;;13.47;62.30;99753.53;5033128;28;20036;-83
2023/04/13 11:05:32;;;;;;;1.20;0.82;;;;;;;13.50;63.57;99764.00;5049841;28;20136;-81
2023/04/13 11:07:58;;;;;;;2.15;0.80;;;;;;;12.98;60.58;99758.38;5065763;28;20478;-82
2023/04/13 11:10:26;;;;;;;2.15;1.60;;;;;;;13.06;61.61;99764.22;5069441;28;20047;-82
2023/04/13 11:12:55;;;;;;;1.55;1.25;;;;;;;12.82;61.89;99766.16;5046863;28;20098;-82
2023/04/13 11:15:23;;;;;;;1.15;0.80;;;;;;;12.81;63.89;99769.75;5069812;28;20457;-81
2023/04/13 11:17:53;;;;;;;2.42;0.90;;;;;;;12.85;62.48;99765.16;5050740;28;20044;-83
2023/04/13 11:20:31;;;;;;;2.30;1.05;;;;;;;13.11;66.29;99778.09;5063168;28;20033;-82
2023/04/13 11:23:01;;;;;;;1.42;0.90;;;;;;;13.28;61.69;99774.72;5045720;28;20044;-81
2023/04/13 11:25:29;;;;;;;0.80;0.80;;;;;;;13.30;61.94;99783.50;5060168;28;20057;-82
2023/04/13 11:27:57;;;;;;;1.98;1.20;;;;;;;13.34;62.96;99779.75;5063102;28;20102;-82
2023/04/13 11:30:24;;;;;;;1.65;1.00;;;;;;;13.30;59.46;99774.69;5043309;28;20044;-84
2023/04/13 11:32:55;;;;;;;2.72;1.05;;;;;;;13.32;61.76;99780.75;5045801;28;20445;-82
2023/04/13 11:35:22;;;;;;;2.05;1.10;;;;;;;13.43;61.56;99791.75;5032269;28;20136;-84